METAR Data
IDs: Format: Raw Decoded Include TAF

Data at: 0815 UTC 23 Sep 2018

KADF 230756Z AUTO 02005KT 4SM -RA BR OVC005 18/18 A2999 RMK AO2 RAB07 SLP158 P0001 T01830183 TSNO
KADF 230656Z AUTO 03005KT 10SM OVC005 18/18 A2999 RMK AO2 SLP160 T01830178 TSNO
KADF 230633Z AUTO 03004KT 10SM OVC005 18/18 A3000 RMK AO2 TSNO
KADF 230556Z AUTO VRB05KT 10SM OVC007 18/18 A3000 RMK AO2 SLP162 60000 T01830178 10183 20183 402280183 56012 TSNO
KADF 230456Z AUTO 02003KT 10SM OVC007 18/18 A3001 RMK AO2 RAE0358 SLP167 P0000 T01830178 TSNO
KADF 230356Z AUTO VRB03KT 10SM -RA OVC007 18/18 A3002 RMK AO2 RAB27 SLP167 P0000 T01830178 TSNO
KADF 230256Z AUTO VRB03KT 10SM OVC009 18/17 A3004 RMK AO2 RAB36E51 SLP173 P0000 60000 T01830172 53009 TSNO
KADF 230156Z AUTO VRB04KT 10SM OVC009 18/17 A3003 RMK AO2 RAE18 SLP171 P0000 T01830172 TSNO
KADF 230056Z AUTO 04007KT 10SM -RA BKN009 OVC012 18/17 A3001 RMK AO2 RAE24B50 SLP163 P0000 T01830172 TSNO
KADF 222356Z AUTO 04006KT 10SM -RA OVC007 18/18 A3001 RMK AO2 RAE27B43 SLP164 P0000 60017 T01830178 10189 20183 50002 TSNO
KADF 222256Z AUTO 03006KT 10SM -RA BKN009 OVC013 18/18 A3001 RMK AO2 CIG 006V011 SLP166 P0001 T01830178 TSNO
KADF 222156Z AUTO 05005KT 10SM -RA OVC009 18/18 A3002 RMK AO2 CIG 006V012 SLP167 P0002 T01830178 TSNO
KADF 222056Z AUTO 03009KT 10SM -RA OVC007 19/18 A3000 RMK AO2 CIG 004V010 SLP162 P0004 60014 T01890183 56016 TSNO
KADF 222049Z AUTO 03007KT 10SM -RA BKN007 OVC011 19/18 A3000 RMK AO2 CIG 004V010 P0004 TSNO
KADF 222013Z AUTO 02007KT 10SM -RA BKN005 OVC012 18/18 A3002 RMK AO2 CIG 004V008 P0002 TSNO
KADF 221956Z AUTO 03007KT 7SM RA SCT005 BKN010 OVC018 19/18 A3002 RMK AO2 SLP166 P0006 T01890183 TSNO
KADF 221856Z AUTO 04006KT 10SM -RA OVC009 18/18 A3005 RMK AO2 CIG 007V013 SLP177 P0004 T01830178 TSNO
KADF 221809Z AUTO 05007KT 9SM -RA BKN007 OVC012 18/18 A3005 RMK AO2 CIG 005V009 P0001 TSNO
KADF 221756Z AUTO 03008G14KT 8SM RA OVC005 18/18 A3006 RMK AO2 CIG 005V010 SLP182 P0018 60058 T01830178 10206 20183 58005 TSNO
KADF 221743Z AUTO 03008KT 10SM -RA OVC005 18/18 A3007 RMK AO2 CIG 005V010 P0015 TSNO
KADF 221718Z AUTO 04005KT 9SM -RA BKN009 BKN013 OVC021 18/18 A3008 RMK AO2 CIG 006V011 P0011 TSNO
KADF 221656Z AUTO 04007KT 10SM RA OVC010 18/18 A3008 RMK AO2 CIG 007V012 SLP189 P0006 T01830178 TSNO
KADF 221556Z AUTO 04006KT 10SM RA OVC008 19/18 A3009 RMK AO2 RAE08B40 SLP191 P0001 T01890183 TSNO
KADF 221539Z AUTO 04007KT 020V080 10SM OVC008 19/18 A3009 RMK AO2 RAE08 CIG 007V012 P0000 TSNO
KADF 221456Z AUTO 04009G15KT 10SM -RA BKN010 OVC017 19/18 A3008 RMK AO2 CIG 007V013 SLP186 P0003 60033 T01890183 51018 TSNO
KADF 221356Z AUTO 04008KT 10SM -RA OVC008 19/19 A3007 RMK AO2 CIG 005V010 SLP183 P0003 T01940189 TSNO
KADF 221256Z AUTO 02010G16KT 7SM -RA OVC006 21/20 A3006 RMK AO2 CIG 005V010 SLP179 P0027 T02060200 TSNO
KADF 221156Z AUTO 04010G18KT 5SM +RA BR OVC006 22/22 A3002 RMK AO2 CIG 003V009 SLP168 P0021 60038 70379 T02220222 10228 20222 51005 TSNO
KADF 221056Z AUTO 03006KT 10SM -RA BKN008 BKN011 OVC070 23/22 A3001 RMK AO2 SLP164 P0015 T02280222 TSNO
KADF 220956Z AUTO 03005KT 10SM -RA OVC005 22/22 A3001 RMK AO2 RAB45 SLP163 P0000 T02220222 TSNO
KADF 220933Z AUTO 03006KT 10SM OVC005 22/22 A3001 RMK AO2 TSNO
KADF 220856Z AUTO 01006KT 10SM OVC007 22/22 A3001 RMK AO2 CIG 005V009 SLP164 60002 T02220222 56017 TSNO
KADF 220756Z AUTO 03005KT 10SM OVC007 23/22 A3002 RMK AO2 RAE0659 CIG 005V011 SLP167 P0000 T02280222 TSNO
KADF 220656Z AUTO VRB04KT 10SM -RA OVC009 23/22 A3004 RMK AO2 CIG 007V013 SLP172 P0002 T02280222 TSNO
KADF 220634Z AUTO 03004KT 10SM -RA BKN009 BKN038 OVC100 23/23 A3005 RMK AO2 CIG 004V018 P0001 TSNO
KADF 220556Z AUTO VRB03KT 10SM -RA OVC005 23/23 A3006 RMK AO2 RAB56 SLP180 P0000 60067 T02280228 10233 20228 403330217 55004 TSNO
KADF 220528Z AUTO 02008KT 10SM BKN007 BKN070 OVC095 23/23 A3004 RMK AO2 TSNO
KADF 220508Z AUTO 02005KT 10SM FEW007 OVC095 23/23 A3005 RMK AO2 TSNO
KADF 220456Z AUTO 04005KT 10SM OVC090 23/23 A3004 RMK AO2 SLP174 T02330228 TSNO
KADF 220356Z AUTO 01009KT 10SM FEW008 BKN085 OVC110 23/23 A3005 RMK AO2 RAE42 SLP175 P0002 T02330228 TSNO
KADF 220256Z AUTO 03003KT 10SM -RA FEW004 BKN038 BKN065 23/23 A3007 RMK AO2 SLP185 P0005 60065 T02280228 53014 TSNO
KADF 220243Z AUTO 03003KT 10SM -RA FEW004 BKN040 BKN050 23/22 A3007 RMK AO2 P0005 TSNO
KADF 220156Z AUTO 04003KT 10SM -RA BKN050 OVC060 23/23 A3006 RMK AO2 SLP181 P0031 T02280228 TSNO
KADF 220132Z AUTO 36004KT 3SM RA BR SCT023 BKN038 OVC085 23/23 A3005 RMK AO2 P0028 TSNO
KADF 220128Z AUTO 00000KT 2SM +RA BR BKN023 BKN038 OVC070 23/23 A3005 RMK AO2 VIS 1V5 P0027 TSNO
KADF 220122Z AUTO 31003KT 1 3/4SM +RA BR BKN023 BKN040 OVC080 23/22 A3005 RMK AO2 VIS 3/4V5 P0022 TSNO
KADF 220056Z AUTO 35004KT 10SM RA BKN070 OVC090 23/22 A3004 RMK AO2 SLP173 P0029 T02280222 TSNO
KADF 220023Z AUTO 03006KT 10SM RA FEW025 BKN080 OVC090 23/23 A3002 RMK AO2 P0019 TSNO
KADF 220010Z AUTO 31004KT 2 1/2SM RA BR FEW013 BKN038 OVC090 23/23 A3002 RMK AO2 P0015 TSNO
KADF 212356Z AUTO 28011G18KT 1 1/4SM +RA BR FEW005 BKN015 OVC042 23/23 A3003 RMK AO2 SLP171 P0122 60274 T02280228 10333 20228 53028 TSNO
KADF 212353Z AUTO 29010G18KT 1 1/4SM +RA BR SCT010 BKN017 OVC035 23/23 A3003 RMK AO2 P0119 TSNO
KADF 212350Z AUTO 27012G22KT 1SM +RA BR SCT010 BKN019 OVC035 23/23 A3004 RMK AO2 CIG 015V025 P0111 TSNO
KADF 212338Z AUTO 26014KT 1 3/4SM +RA BR FEW005 BKN034 OVC055 23/23 A3003 RMK AO2 PRESRR P0060 TSNO
KADF 212335Z AUTO 26015KT 2 1/2SM +RA BR FEW005 BKN029 OVC085 23/23 A3002 RMK AO2 CIG 024V041 P0048 TSNO
KADF 212328Z AUTO 23010G15KT 6SM +RA BR FEW022 BKN050 OVC090 23/22 A3001 RMK AO2 PRESRR P0035 TSNO
KADF 212314Z AUTO 28012G17KT 240V330 3SM -RA BR SCT011 BKN029 OVC085 24/22 A2999 RMK AO2 P0030 TSNO
KADF 212311Z AUTO 36011G15KT 2SM RA FEW006 BKN013 OVC085 24/21 A2997 RMK AO2 VIS 3/4V5 CIG 009V021 P0030 TSNO
KADF 212300Z AUTO VRB05G20KT 1 1/4SM +RA SCT007 BKN014 OVC045 23/21 A2999 RMK AO2 CIG 012V021 P0005 TSNO
KADF 212256Z AUTO 10007G20KT 060V140 1SM +RA BKN009 BKN019 OVC048 23/21 A3000 RMK AO2 RAB22 CIG 005V014 SLP160 P0152 T02330206 TSNO
KADF 212254Z AUTO 10014G20KT 1SM +RA BR SCT006 BKN015 OVC050 23/21 A3000 RMK AO2 RAB22 P0142 TSNO
KADF 212245Z AUTO 21005G24KT 3/4SM +RA BR FEW005 BKN031 OVC050 24/22 A3001 RMK AO2 RAB22 PRESRR P0075 TSNO
KADF 212242Z AUTO 15012G24KT 100V170 1 1/2SM +RA BR FEW016 BKN048 OVC090 24/23 A3002 RMK AO2 VIS 3/4V3 RAB22 PRESRR P0047 TSNO
KADF 212156Z AUTO 33008KT 10SM SCT050 SCT075 BKN120 29/24 A2996 RMK AO2 SLP147 T02890244 TSNO
KADF 212056Z AUTO 06004KT 10SM SCT050 30/24 A2995 RMK AO2 SLP142 T03000244 56020 TSNO